createdAt,value
2023-04-05T00:01:20.305Z,75.49
2023-04-05T00:03:48.813Z,75.24
2023-04-05T00:06:17.330Z,75.42
2023-04-05T00:08:50.356Z,75.51
2023-04-05T00:11:18.876Z,75.50
2023-04-05T00:13:47.380Z,75.43
2023-04-05T00:16:17.800Z,75.41
2023-04-05T00:18:51.544Z,75.60
2023-04-05T00:21:24.606Z,75.51
2023-04-05T00:23:57.163Z,75.43
2023-04-05T00:26:26.165Z,75.33
2023-04-05T00:28:54.513Z,75.34
2023-04-05T00:31:22.943Z,75.33
2023-04-05T00:33:51.905Z,75.36
2023-04-05T00:36:21.116Z,75.19
2023-04-05T00:38:49.869Z,75.30
2023-04-05T00:41:18.471Z,75.18
2023-04-05T00:43:47.282Z,75.10
2023-04-05T00:46:16.950Z,75.10
2023-04-05T00:48:45.601Z,75.13
2023-04-05T00:51:13.972Z,75.24
2023-04-05T00:53:43.147Z,75.01
2023-04-05T00:56:13.944Z,75.18
2023-04-05T00:58:42.641Z,75.05
2023-04-05T01:01:20.595Z,75.03
2023-04-05T01:04:11.424Z,75.15
2023-04-05T01:07:07.639Z,75.24
2023-04-05T01:09:55.944Z,75.15
2023-04-05T01:12:28.397Z,75.19
2023-04-05T01:14:56.781Z,75.19
2023-04-05T01:17:36.797Z,75.18
2023-04-05T01:20:13.005Z,75.37
2023-04-05T01:23:06.599Z,75.44
2023-04-05T01:26:11.320Z,75.59
2023-04-05T01:29:08.071Z,75.61
2023-04-05T01:32:18.370Z,75.79
2023-04-05T01:35:17.068Z,75.67
2023-04-05T01:37:51.008Z,75.85
2023-04-05T01:40:19.964Z,75.98
2023-04-05T01:42:48.394Z,76.07
2023-04-05T01:45:16.801Z,76.08
2023-04-05T01:47:45.270Z,76.04
2023-04-05T01:50:13.630Z,76.19
2023-04-05T01:52:41.944Z,76.31
2023-04-05T01:55:10.365Z,76.31
2023-04-05T01:57:39.166Z,76.27
2023-04-05T02:00:08.706Z,76.55
2023-04-05T02:02:37.154Z,76.45
2023-04-05T02:05:06.107Z,76.61
2023-04-05T02:07:34.684Z,76.60
2023-04-05T02:10:03.388Z,76.74
2023-04-05T02:12:31.922Z,76.86
2023-04-05T02:15:00.925Z,76.91
2023-04-05T02:17:34.156Z,76.99
2023-04-05T02:20:04.594Z,77.17
2023-04-05T02:22:32.917Z,77.33
2023-04-05T02:25:01.712Z,77.46
2023-04-05T02:27:30.766Z,77.62
2023-04-05T02:29:59.101Z,77.64
2023-04-05T02:32:27.617Z,77.75
2023-04-05T02:34:56.264Z,77.96
2023-04-05T02:37:26.383Z,77.84
2023-04-05T02:39:54.791Z,77.94
2023-04-05T02:42:23.130Z,77.96
2023-04-05T02:44:52.644Z,77.96
2023-04-05T02:47:21.741Z,77.93
2023-04-05T02:49:50.364Z,77.94
2023-04-05T02:52:18.732Z,77.97
2023-04-05T02:54:47.080Z,77.94
2023-04-05T02:57:16.345Z,78.06
2023-04-05T02:59:45.293Z,78.16
2023-04-05T03:02:13.652Z,78.24
2023-04-05T03:04:44.954Z,78.38
2023-04-05T03:07:18.695Z,78.41
2023-04-05T03:09:47.549Z,78.64
2023-04-05T03:12:15.956Z,78.64
2023-04-05T03:14:46.107Z,78.70
2023-04-05T03:17:14.566Z,78.80
2023-04-05T03:19:42.913Z,78.80
2023-04-05T03:22:11.327Z,78.82
2023-04-05T03:24:39.701Z,78.94
2023-04-05T03:27:08.127Z,78.83
2023-04-05T03:29:36.438Z,78.89
2023-04-05T03:32:05.273Z,78.96
2023-04-05T03:34:33.576Z,79.03
2023-04-05T03:37:01.878Z,79.17
2023-04-05T03:39:30.303Z,79.39
2023-04-05T03:41:58.801Z,79.47
2023-04-05T03:44:27.216Z,79.69
2023-04-05T03:46:55.598Z,79.88
2023-04-05T03:49:25.106Z,80.05
2023-04-05T03:51:53.430Z,79.94
2023-04-05T03:54:22.006Z,80.10
2023-04-05T03:56:50.600Z,80.26
2023-04-05T03:59:19.051Z,80.32
2023-04-05T04:01:48.192Z,80.48
2023-04-05T04:04:16.543Z,80.50
2023-04-05T04:06:44.880Z,80.45
2023-04-05T04:09:13.181Z,80.30
2023-04-05T04:11:41.584Z,80.35
2023-04-05T04:14:09.863Z,80.26
2023-04-05T04:16:38.212Z,80.31
2023-04-05T04:19:06.518Z,80.41
2023-04-05T04:21:35.793Z,80.37
2023-04-05T04:24:04.615Z,80.51
2023-04-05T04:26:37.519Z,80.48
2023-04-05T04:29:06.856Z,80.59
2023-04-05T04:31:35.260Z,80.65
2023-04-05T04:34:05.576Z,80.72
2023-04-05T04:36:37.019Z,80.97
2023-04-05T04:39:08.103Z,81.11
2023-04-05T04:41:38.277Z,81.11
2023-04-05T04:44:06.638Z,81.31
2023-04-05T04:46:42.694Z,81.33
2023-04-05T04:49:11.195Z,81.37
2023-04-05T04:51:39.737Z,81.45
2023-04-05T04:54:08.061Z,81.43
2023-04-05T04:56:36.710Z,81.41
2023-04-05T04:59:05.052Z,81.45
2023-04-05T05:01:34.280Z,81.48
2023-04-05T05:04:04.296Z,81.52
2023-04-05T05:06:32.705Z,81.52
2023-04-05T05:09:01.387Z,81.70
2023-04-05T05:11:29.762Z,81.68
2023-04-05T05:13:59.142Z,81.86
2023-04-05T05:16:28.221Z,81.68
2023-04-05T05:18:56.604Z,81.96
2023-04-05T05:21:25.128Z,81.94
2023-04-05T05:23:53.473Z,81.73
2023-04-05T05:26:21.741Z,81.64
2023-04-05T05:28:50.201Z,81.55
2023-04-05T05:31:19.497Z,81.64
2023-04-05T05:33:50.080Z,81.65
2023-04-05T05:36:19.991Z,81.78
2023-04-05T05:38:49.125Z,81.93
2023-04-05T05:41:17.532Z,81.92
2023-04-05T05:43:46.016Z,81.88
2023-04-05T05:46:14.702Z,81.98
2023-04-05T05:48:43.081Z,82.08
2023-04-05T05:51:11.653Z,81.99
2023-04-05T05:53:40.481Z,82.11
2023-04-05T05:56:08.816Z,82.02
2023-04-05T05:58:39.844Z,82.12
2023-04-05T06:01:08.755Z,82.18
2023-04-05T06:03:37.449Z,82.08
2023-04-05T06:06:08.472Z,82.08
2023-04-05T06:08:38.300Z,82.02
2023-04-05T06:11:06.989Z,81.82
2023-04-05T06:13:35.444Z,81.76
2023-04-05T06:18:42.192Z,81.34
2023-04-05T06:21:12.403Z,81.00
2023-04-05T06:23:52.432Z,81.29
2023-04-05T06:26:31.436Z,81.17
2023-04-05T06:29:21.247Z,81.01
2023-04-05T06:31:49.968Z,81.04
2023-04-05T06:34:26.948Z,80.83
2023-04-05T06:37:12.655Z,81.07
2023-04-05T06:39:44.709Z,81.00
2023-04-05T06:42:13.186Z,80.64
2023-04-05T06:44:48.732Z,80.78
2023-04-05T06:47:19.878Z,80.39
2023-04-05T06:50:23.356Z,80.77
2023-04-05T06:52:51.940Z,80.47
2023-04-05T06:55:20.645Z,80.56
2023-04-05T06:57:52.958Z,80.67
2023-04-05T07:00:21.811Z,80.68
2023-04-05T07:04:19.923Z,80.43
2023-04-05T07:06:48.307Z,80.19
2023-04-05T07:09:17.161Z,80.12
2023-04-05T07:11:45.687Z,80.04
2023-04-05T07:14:14.220Z,80.08
2023-04-05T07:16:42.704Z,80.17
2023-04-05T07:19:11.393Z,80.31
2023-04-05T07:21:39.917Z,80.00
2023-04-05T07:24:08.905Z,79.65
2023-04-05T07:26:37.826Z,79.55
2023-04-05T07:29:10.059Z,79.40
2023-04-05T07:31:40.016Z,79.46
2023-04-05T07:34:08.464Z,79.13
2023-04-05T07:36:37.361Z,79.23
2023-04-05T07:39:05.917Z,78.95
2023-04-05T07:41:37.783Z,78.80
2023-04-05T07:44:06.636Z,78.60
2023-04-05T07:46:36.381Z,78.25
2023-04-05T07:49:04.902Z,78.19
2023-04-05T07:51:41.209Z,78.18
2023-04-05T07:54:10.178Z,77.90
2023-04-05T07:56:38.574Z,77.85
2023-04-05T07:59:06.965Z,77.57
2023-04-05T08:01:35.406Z,77.66
2023-04-05T08:04:03.866Z,77.39
2023-04-05T08:06:32.249Z,77.68
2023-04-05T08:09:00.587Z,77.85
2023-04-05T08:11:28.936Z,77.53
2023-04-05T08:13:57.882Z,77.61
2023-04-05T08:19:40.979Z,77.74
2023-04-05T08:22:30.440Z,77.68
2023-04-05T08:25:01.190Z,77.55
2023-04-05T08:27:29.706Z,77.54
2023-04-05T08:29:58.022Z,77.44
2023-04-05T08:32:26.402Z,77.57
2023-04-05T08:34:54.824Z,77.34
2023-04-05T08:37:23.157Z,77.00
2023-04-05T08:39:51.460Z,76.93
2023-04-05T08:42:31.986Z,76.82
2023-04-05T08:45:04.274Z,76.25
2023-04-05T08:47:36.785Z,75.90
2023-04-05T08:50:06.280Z,75.83
2023-04-05T08:52:38.143Z,75.24
2023-04-05T08:55:07.023Z,74.97
2023-04-05T08:57:39.399Z,74.69
2023-04-05T09:00:09.522Z,74.55
2023-04-05T09:02:38.993Z,74.39
2023-04-05T09:05:10.878Z,74.56
2023-04-05T09:07:40.836Z,74.27
2023-04-05T09:10:09.365Z,73.89
2023-04-05T09:12:38.642Z,73.56
2023-04-05T09:15:07.593Z,73.11
2023-04-05T09:17:39.263Z,73.38
2023-04-05T09:20:08.041Z,73.12
2023-04-05T09:22:47.535Z,72.48
2023-04-05T09:25:39.551Z,72.95
2023-04-05T09:28:13.318Z,72.83
2023-04-05T09:30:47.237Z,73.24
2023-04-05T09:33:25.620Z,73.71
2023-04-05T09:35:55.602Z,72.70
2023-04-05T09:38:44.659Z,72.33
2023-04-05T09:41:13.073Z,71.90
2023-04-05T09:43:42.682Z,71.61
2023-04-05T09:46:32.007Z,71.97
2023-04-05T09:49:02.472Z,72.51
2023-04-05T09:51:38.859Z,72.13
2023-04-05T09:54:11.323Z,71.38
2023-04-05T09:56:42.001Z,70.82
2023-04-05T09:59:12.864Z,69.90
2023-04-05T10:01:45.121Z,69.59
2023-04-05T10:04:14.382Z,70.37
2023-04-05T10:06:43.065Z,69.47
2023-04-05T10:09:16.571Z,68.21
2023-04-05T10:11:45.969Z,68.67
2023-04-05T10:14:14.837Z,68.87
2023-04-05T10:17:28.069Z,67.54
2023-04-05T10:20:18.466Z,67.32
2023-04-05T10:22:59.869Z,65.51
2023-04-05T10:25:31.146Z,65.35
2023-04-05T10:34:41.671Z,63.26
2023-04-05T10:37:37.400Z,62.64
2023-04-05T10:40:09.912Z,62.70
2023-04-05T10:42:46.629Z,63.04
2023-04-05T10:45:23.325Z,63.00
2023-04-05T10:48:21.637Z,63.28
2023-04-05T10:50:50.859Z,63.42
2023-04-05T10:53:22.151Z,63.02
2023-04-05T10:55:51.067Z,63.17
2023-04-05T10:58:20.663Z,63.63
2023-04-05T11:00:51.069Z,64.58
2023-04-05T11:03:44.949Z,65.47
2023-04-05T11:06:44.025Z,65.11
2023-04-05T11:09:20.317Z,64.47
2023-04-05T11:11:52.023Z,64.58
2023-04-05T11:14:36.023Z,64.53
2023-04-05T11:17:05.032Z,63.69
2023-04-05T11:19:47.901Z,63.11
2023-04-05T11:22:27.663Z,63.43
2023-04-05T11:25:02.028Z,63.12
2023-04-05T11:27:33.962Z,62.59
2023-04-05T11:30:05.487Z,62.22
2023-04-05T11:32:47.141Z,62.28
2023-04-05T11:35:22.965Z,60.67
2023-04-05T11:38:00.961Z,60.16
2023-04-05T11:40:41.036Z,60.06
2023-04-05T11:43:12.596Z,60.09
2023-04-05T11:45:44.554Z,60.10
2023-04-05T11:48:14.445Z,59.57
2023-04-05T11:50:43.020Z,59.49
2023-04-05T11:53:20.046Z,59.42
2023-04-05T11:55:51.795Z,59.09
2023-04-05T11:58:24.205Z,59.30
2023-04-05T12:01:01.379Z,59.15
2023-04-05T12:03:31.190Z,59.51
2023-04-05T12:06:03.622Z,59.26
2023-04-05T12:08:49.885Z,59.26
2023-04-05T12:11:27.235Z,59.09
2023-04-05T12:14:02.503Z,59.30
2023-04-05T12:16:30.985Z,59.53
2023-04-05T12:19:00.939Z,59.91
2023-04-05T12:21:29.452Z,60.54
2023-04-05T12:23:58.816Z,61.20
2023-04-05T12:26:28.682Z,62.35
2023-04-05T12:29:00.397Z,63.11
2023-04-05T12:31:46.947Z,63.59
2023-04-05T12:34:15.992Z,64.20
2023-04-05T12:36:46.714Z,64.60
2023-04-05T12:39:17.683Z,64.68
2023-04-05T12:42:18.948Z,64.64
2023-04-05T12:45:06.363Z,64.61
2023-04-05T12:47:48.624Z,64.03
2023-04-05T12:50:18.883Z,63.84
2023-04-05T12:52:56.350Z,63.89
2023-04-05T12:55:27.188Z,63.49
2023-04-05T12:58:04.894Z,63.39
2023-04-05T13:00:33.801Z,62.99
2023-04-05T13:03:02.208Z,62.80
2023-04-05T13:05:31.303Z,62.77
2023-04-05T13:08:00.356Z,62.85
2023-04-05T13:10:28.893Z,62.92
2023-04-05T13:12:57.457Z,62.96
2023-04-05T13:15:25.821Z,63.02
2023-04-05T13:17:55.157Z,63.23
2023-04-05T13:20:23.951Z,63.52
2023-04-05T13:22:52.531Z,64.05
2023-04-05T13:25:20.994Z,64.42
2023-04-05T13:27:50.085Z,64.75
2023-04-05T13:30:18.982Z,64.34
2023-04-05T13:32:47.440Z,63.73
2023-04-05T13:35:16.142Z,63.02
2023-04-05T13:37:44.595Z,63.14
2023-04-05T13:40:13.113Z,63.16
2023-04-05T13:42:41.438Z,62.55
2023-04-05T13:45:10.529Z,62.14
2023-04-05T13:47:38.892Z,61.65
2023-04-05T13:50:08.305Z,61.66
2023-04-05T13:52:37.798Z,61.76
2023-04-05T13:55:06.695Z,61.72
2023-04-05T13:57:35.058Z,61.67
2023-04-05T14:00:04.085Z,61.68
2023-04-05T14:02:32.949Z,62.07
2023-04-05T14:05:01.429Z,62.26
2023-04-05T14:07:30.046Z,63.12
2023-04-05T14:09:58.473Z,63.72
2023-04-05T14:12:26.923Z,64.63
2023-04-05T14:14:55.301Z,65.37
2023-04-05T14:17:23.654Z,66.09
2023-04-05T14:19:52.044Z,66.84
2023-04-05T14:22:21.615Z,67.47
2023-04-05T14:24:50.017Z,68.19
2023-04-05T14:27:18.475Z,68.85
2023-04-05T14:29:47.240Z,69.37
2023-04-05T14:32:15.923Z,69.77
2023-04-05T14:34:44.275Z,70.18
2023-04-05T14:37:12.613Z,70.44
2023-04-05T14:39:41.178Z,70.79
2023-04-05T14:42:09.689Z,70.71
2023-04-05T14:44:38.954Z,71.07
2023-04-05T14:47:07.312Z,71.25
2023-04-05T14:49:35.691Z,71.19
2023-04-05T14:52:04.348Z,71.02
2023-04-05T14:54:32.764Z,71.07
2023-04-05T14:57:01.093Z,71.20
2023-04-05T14:59:29.983Z,71.04
2023-04-05T15:01:58.623Z,70.75
2023-04-05T15:04:28.392Z,70.30
2023-04-05T15:06:56.788Z,70.21
2023-04-05T15:09:25.177Z,70.22
2023-04-05T15:11:55.414Z,69.62
2023-04-05T15:14:31.739Z,68.23
2023-04-05T15:17:00.863Z,67.58
2023-04-05T15:19:30.632Z,67.29
2023-04-05T15:21:59.069Z,66.33
2023-04-05T15:24:27.554Z,65.56
2023-04-05T15:27:02.014Z,65.03
2023-04-05T15:29:31.991Z,64.20
2023-04-05T15:32:02.964Z,63.46
2023-04-05T15:34:32.184Z,63.03
2023-04-05T15:37:00.513Z,62.99
2023-04-05T15:39:28.923Z,61.52
2023-04-05T15:41:57.921Z,60.12
2023-04-05T15:44:26.798Z,59.70
2023-04-05T15:46:55.258Z,59.32
2023-04-05T15:49:23.629Z,58.53
2023-04-05T15:51:52.102Z,57.91
2023-04-05T15:54:21.191Z,57.11
2023-04-05T15:56:49.760Z,56.89
2023-04-05T15:59:18.477Z,56.80
2023-04-05T16:01:47.238Z,56.50
2023-04-05T16:04:16.099Z,55.57
2023-04-05T16:06:44.545Z,55.22
2023-04-05T16:09:13.016Z,54.91
2023-04-05T16:11:41.496Z,54.16
2023-04-05T16:14:11.431Z,53.48
2023-04-05T16:16:50.503Z,53.30
2023-04-05T16:19:24.600Z,52.80
2023-04-05T16:21:53.503Z,52.42
2023-04-05T16:24:22.032Z,52.03
2023-04-05T16:26:50.426Z,50.82
2023-04-05T16:29:19.162Z,50.00
2023-04-05T16:31:47.825Z,49.10
2023-04-05T16:34:16.512Z,48.53
2023-04-05T16:36:44.964Z,48.70
2023-04-05T16:39:13.389Z,49.06
2023-04-05T16:41:41.910Z,49.08
2023-04-05T16:44:10.445Z,49.12
2023-04-05T16:46:40.118Z,49.60
2023-04-05T16:49:08.617Z,50.40
2023-04-05T16:51:37.308Z,50.97
2023-04-05T16:54:05.912Z,51.29
2023-04-05T16:56:34.404Z,51.08
2023-04-05T16:59:05.069Z,50.67
2023-04-05T17:01:35.560Z,51.04
2023-04-05T17:04:04.011Z,51.31
2023-04-05T17:06:32.608Z,51.35
2023-04-05T17:09:01.312Z,51.48
2023-04-05T17:11:30.038Z,51.65
2023-04-05T17:13:59.617Z,52.06
2023-04-05T17:16:28.369Z,52.58
2023-04-05T17:18:56.883Z,53.32
2023-04-05T17:21:26.047Z,53.95
2023-04-05T17:25:54.389Z,54.94
2023-04-05T17:28:22.829Z,55.67
2023-04-05T17:30:51.402Z,56.24
2023-04-05T17:33:19.749Z,56.83
2023-04-05T17:35:49.094Z,57.34
2023-04-05T17:38:17.474Z,57.76
2023-04-05T17:40:53.165Z,58.43
2023-04-05T17:43:21.619Z,58.82
2023-04-05T17:45:50.332Z,59.57
2023-04-05T17:48:19.205Z,59.77
2023-04-05T17:50:47.664Z,60.40
2023-04-05T17:53:16.699Z,60.81
2023-04-05T17:55:45.149Z,61.19
2023-04-05T17:58:13.688Z,61.77
2023-04-05T18:00:42.245Z,62.21
2023-04-05T18:03:12.962Z,62.90
2023-04-05T18:05:41.835Z,63.34
2023-04-05T18:08:10.186Z,63.86
2023-04-05T18:10:38.560Z,64.46
2023-04-05T18:13:06.941Z,64.90
2023-04-05T18:15:35.566Z,65.16
2023-04-05T18:18:04.303Z,65.66
2023-04-05T18:20:33.168Z,65.94
2023-04-05T18:23:01.508Z,66.42
2023-04-05T18:25:29.888Z,66.76
2023-04-05T18:27:58.304Z,67.05
2023-04-05T18:30:26.687Z,67.43
2023-04-05T18:32:55.151Z,67.76
2023-04-05T18:35:23.577Z,68.23
2023-04-05T18:37:52.026Z,68.46
2023-04-05T18:40:21.023Z,68.67
2023-04-05T18:42:49.479Z,69.22
2023-04-05T18:45:18.505Z,69.46
2023-04-05T18:47:46.884Z,69.40
2023-04-05T18:50:15.667Z,69.68
2023-04-05T18:52:44.137Z,69.69
2023-04-05T18:55:14.033Z,69.93
2023-04-05T18:57:42.467Z,70.43
2023-04-05T19:00:11.665Z,70.54
2023-04-05T19:02:41.117Z,70.95
2023-04-05T19:05:10.354Z,71.12
2023-04-05T19:07:38.791Z,71.39
2023-04-05T19:10:08.124Z,71.48
2023-04-05T19:12:36.550Z,71.61
2023-04-05T19:15:05.684Z,72.00
2023-04-05T19:17:34.211Z,72.05
2023-04-05T19:20:03.042Z,72.02
2023-04-05T19:22:31.435Z,72.52
2023-04-05T19:25:01.077Z,72.76
2023-04-05T19:27:34.391Z,73.01
2023-04-05T19:30:04.086Z,73.11
2023-04-05T19:32:32.455Z,73.11
2023-04-05T19:35:01.137Z,73.56
2023-04-05T19:37:30.733Z,73.61
2023-04-05T19:39:59.085Z,73.92
2023-04-05T19:42:27.624Z,74.30
2023-04-05T19:44:58.074Z,74.72
2023-04-05T19:47:26.983Z,74.88
2023-04-05T19:49:57.220Z,75.65
2023-04-05T19:52:47.996Z,75.80
2023-04-05T19:55:31.201Z,76.29
2023-04-05T19:58:01.892Z,76.47
2023-04-05T20:00:48.629Z,76.61
2023-04-05T20:03:38.509Z,76.98
2023-04-05T20:06:08.878Z,77.23
2023-04-05T20:08:39.772Z,77.49
2023-04-05T20:11:13.145Z,77.77
2023-04-05T20:13:57.260Z,78.22
2023-04-05T20:16:34.209Z,78.46
2023-04-05T20:19:07.044Z,78.79
2023-04-05T20:21:39.749Z,79.38
2023-04-05T20:24:12.926Z,79.54
2023-04-05T20:26:41.414Z,79.48
2023-04-05T20:29:10.193Z,79.80
2023-04-05T20:31:40.129Z,79.57
2023-04-05T20:34:19.674Z,79.84
2023-04-05T20:36:54.726Z,80.05
2023-04-05T20:39:23.942Z,80.01
2023-04-05T20:41:52.689Z,80.20
2023-04-05T20:44:21.536Z,80.40
2023-04-05T20:46:53.234Z,80.71
2023-04-05T20:49:24.339Z,81.01
2023-04-05T20:51:54.989Z,81.28
2023-04-05T20:54:24.302Z,81.42
2023-04-05T20:56:53.208Z,81.58
2023-04-05T20:59:21.703Z,81.70
2023-04-05T21:01:50.675Z,82.00
2023-04-05T21:04:19.086Z,81.90
2023-04-05T21:06:47.514Z,82.01
2023-04-05T21:09:15.978Z,82.16
2023-04-05T21:11:44.399Z,81.83
2023-04-05T21:14:12.924Z,81.82
2023-04-05T21:16:41.450Z,81.80
2023-04-05T21:19:10.001Z,81.42
2023-04-05T21:21:38.507Z,81.02
2023-04-05T21:24:06.947Z,81.05
2023-04-05T21:26:35.403Z,80.96
2023-04-05T21:29:03.720Z,81.23
2023-04-05T21:31:32.145Z,81.16
2023-04-05T21:34:00.613Z,80.81
2023-04-05T21:36:29.258Z,80.74
2023-04-05T21:38:57.603Z,80.65
2023-04-05T21:41:26.062Z,80.49
2023-04-05T21:43:54.496Z,80.63
2023-04-05T21:46:22.867Z,80.84
2023-04-05T21:48:51.232Z,80.74
2023-04-05T21:51:19.765Z,80.89
2023-04-05T21:53:48.196Z,80.95
2023-04-05T21:56:16.728Z,81.01
2023-04-05T21:58:45.153Z,81.22
2023-04-05T22:01:13.790Z,81.25
2023-04-05T22:03:42.161Z,81.29
2023-04-05T22:06:10.768Z,81.42
2023-04-05T22:08:39.179Z,81.53
2023-04-05T22:11:08.241Z,81.51
2023-04-05T22:13:36.538Z,81.70
2023-04-05T22:16:05.195Z,81.66
2023-04-05T22:18:33.627Z,81.84
2023-04-05T22:21:02.004Z,81.96
2023-04-05T22:23:30.615Z,81.92
2023-04-05T22:25:58.996Z,81.92
2023-04-05T22:28:27.433Z,82.09
2023-04-05T22:30:55.817Z,82.08
2023-04-05T22:33:24.089Z,82.06
2023-04-05T22:35:52.522Z,82.26
2023-04-05T22:38:21.310Z,82.29
2023-04-05T22:40:49.727Z,82.55
2023-04-05T22:43:18.207Z,82.70
2023-04-05T22:45:49.776Z,82.88
2023-04-05T22:48:18.427Z,82.87
2023-04-05T22:50:46.794Z,83.06
2023-04-05T22:53:15.427Z,82.75
2023-04-05T22:55:43.833Z,82.70
2023-04-05T22:58:12.506Z,82.57
2023-04-05T23:00:40.845Z,82.80
2023-04-05T23:03:09.949Z,83.06
2023-04-05T23:05:38.616Z,83.18
2023-04-05T23:08:06.953Z,83.26
2023-04-05T23:10:35.510Z,83.40
2023-04-05T23:13:03.858Z,83.27
2023-04-05T23:15:32.414Z,83.23
2023-04-05T23:18:00.820Z,83.10
2023-04-05T23:20:29.242Z,83.08
2023-04-05T23:22:58.164Z,83.39
2023-04-05T23:25:26.545Z,83.16
2023-04-05T23:27:55.022Z,83.03
2023-04-05T23:30:23.412Z,82.78
2023-04-05T23:32:51.904Z,82.60
2023-04-05T23:35:21.295Z,82.51
2023-04-05T23:37:49.843Z,82.55
2023-04-05T23:40:18.192Z,82.57
2023-04-05T23:42:46.586Z,82.49
2023-04-05T23:45:15.618Z,82.39
2023-04-05T23:47:43.994Z,82.48
2023-04-05T23:50:12.348Z,82.75
2023-04-05T23:52:40.836Z,82.80
2023-04-05T23:55:09.653Z,82.75
2023-04-05T23:57:38.008Z,82.71
